RCH29 KCHS-KCHS
Flight info
| Callsign | RCH29 |
|---|---|
| Flight time | N/A |
| Altitude | 25000 |
| Route | SWPFX3 FILLI FLO ALWZZ EBOOK SDZ OBNEE OSPRI7 |
| Aircraft | C17/H-SDE1E2FGHIJ5RTUWXY/LB1D1 |
Departure
| Time | 2026-05-04 01:34 |
|---|---|
| Airport | Charleston International Airport (KCHS) |
Arrival
| Time | N/A |
|---|---|
| Airport | Charleston International Airport (KCHS) |
| Time | Latitude | Longitude | Altitude | Speed | Heading |
|---|---|---|---|---|---|
| 2026-05-04 00:37 | 32.90393 | -80.04565 | 62 ft | 0 kts | 237° |
| 2026-05-04 01:27 | 32.90391 | -80.04568 | 62 ft | 2 kts | 237° |
| 2026-05-04 01:27 | 32.90375 | -80.04622 | 62 ft | 8 kts | 280° |
| 2026-05-04 01:27 | 32.90428 | -80.04680 | 62 ft | 13 kts | 326° |
| 2026-05-04 01:27 | 32.90535 | -80.04762 | 63 ft | 21 kts | 327° |
| 2026-05-04 01:28 | 32.90633 | -80.04765 | 63 ft | 11 kts | 61° |
| 2026-05-04 01:28 | 32.90675 | -80.04684 | 63 ft | 11 kts | 51° |
| 2026-05-04 01:28 | 32.90729 | -80.04681 | 63 ft | 8 kts | 328° |
| 2026-05-04 01:28 | 32.90785 | -80.04721 | 63 ft | 11 kts | 330° |
| 2026-05-04 01:29 | 32.90863 | -80.04780 | 63 ft | 15 kts | 327° |
| 2026-05-04 01:29 | 32.90974 | -80.04863 | 63 ft | 21 kts | 327° |
| 2026-05-04 01:29 | 32.91100 | -80.04954 | 64 ft | 20 kts | 328° |
| 2026-05-04 01:29 | 32.91207 | -80.04959 | 64 ft | 15 kts | 58° |
| 2026-05-04 01:30 | 32.91234 | -80.04910 | 64 ft | 0 kts | 56° |
| 2026-05-04 01:33 | 32.91248 | -80.04886 | 64 ft | 9 kts | 56° |
| 2026-05-04 01:33 | 32.91268 | -80.04791 | 64 ft | 12 kts | 128° |
| 2026-05-04 01:33 | 32.91205 | -80.04735 | 63 ft | 15 kts | 148° |
| 2026-05-04 01:34 | 32.90789 | -80.04421 | 63 ft | 122 kts | 148° |
| 2026-05-04 01:34 | 32.89938 | -80.03754 | 565 ft | 145 kts | 146° |
| 2026-05-04 01:34 | 32.89269 | -80.02853 | 1017 ft | 166 kts | 112° |
| 2026-05-04 01:34 | 32.89301 | -80.01350 | 1436 ft | 203 kts | 65° |
| 2026-05-04 01:35 | 32.90163 | -80.00028 | 2235 ft | 207 kts | 54° |
| 2026-05-04 01:35 | 32.90962 | -79.98603 | 2997 ft | 207 kts | 59° |
| 2026-05-04 01:35 | 32.91712 | -79.97131 | 3745 ft | 214 kts | 59° |
| 2026-05-04 01:35 | 32.92450 | -79.95628 | 4498 ft | 216 kts | 59° |
| 2026-05-04 01:36 | 32.93216 | -79.94105 | 5239 ft | 219 kts | 50° |
| 2026-05-04 01:36 | 32.94481 | -79.93183 | 6015 ft | 215 kts | 5° |
| 2026-05-04 01:36 | 32.95946 | -79.93167 | 6812 ft | 216 kts | 355° |
| 2026-05-04 01:36 | 32.97440 | -79.93214 | 7565 ft | 213 kts | 355° |
| 2026-05-04 01:37 | 32.98920 | -79.93272 | 8299 ft | 219 kts | 355° |
| 2026-05-04 01:37 | 33.00421 | -79.93331 | 9038 ft | 218 kts | 355° |
| 2026-05-04 01:37 | 33.01940 | -79.93393 | 9774 ft | 220 kts | 355° |
| 2026-05-04 01:37 | 33.03505 | -79.93456 | 10235 ft | 227 kts | 355° |
| 2026-05-04 01:38 | 33.05081 | -79.93520 | 10227 ft | 225 kts | 355° |
| 2026-05-04 01:38 | 33.06664 | -79.93585 | 10243 ft | 224 kts | 354° |
| 2026-05-04 01:38 | 33.08221 | -79.93649 | 10245 ft | 223 kts | 354° |
| 2026-05-04 01:38 | 33.09772 | -79.93714 | 10248 ft | 224 kts | 354° |
| 2026-05-04 01:39 | 33.11340 | -79.93778 | 10249 ft | 223 kts | 354° |
| 2026-05-04 01:39 | 33.12918 | -79.93845 | 10250 ft | 224 kts | 354° |
| 2026-05-04 01:39 | 33.14482 | -79.93908 | 10249 ft | 223 kts | 355° |
| 2026-05-04 01:39 | 33.16036 | -79.93972 | 10246 ft | 224 kts | 355° |
| 2026-05-04 01:40 | 33.17591 | -79.94036 | 10247 ft | 223 kts | 355° |
| 2026-05-04 01:40 | 33.19139 | -79.94099 | 10247 ft | 224 kts | 355° |
| 2026-05-04 01:40 | 33.20710 | -79.94164 | 10253 ft | 223 kts | 355° |
| 2026-05-04 01:40 | 33.22263 | -79.94204 | 10245 ft | 224 kts | 2° |
| 2026-05-04 01:41 | 33.23673 | -79.93410 | 10270 ft | 235 kts | 44° |
| 2026-05-04 01:41 | 33.24353 | -79.91599 | 10280 ft | 247 kts | 84° |
| 2026-05-04 01:41 | 33.23934 | -79.89636 | 10281 ft | 251 kts | 125° |
| 2026-05-04 01:41 | 33.22571 | -79.88365 | 10274 ft | 248 kts | 165° |
| 2026-05-04 01:42 | 33.20878 | -79.88240 | 10292 ft | 244 kts | 188° |
| 2026-05-04 01:42 | 33.19190 | -79.88393 | 10247 ft | 244 kts | 186° |
| 2026-05-04 01:42 | 33.17484 | -79.88490 | 10244 ft | 244 kts | 186° |
| 2026-05-04 01:42 | 33.15798 | -79.88573 | 10246 ft | 244 kts | 185° |
| 2026-05-04 01:43 | 33.14086 | -79.88648 | 10244 ft | 243 kts | 185° |
| 2026-05-04 01:43 | 33.12385 | -79.88718 | 10248 ft | 244 kts | 185° |
| 2026-05-04 01:43 | 33.10694 | -79.88784 | 10247 ft | 245 kts | 185° |
| 2026-05-04 01:43 | 33.09014 | -79.89039 | 10231 ft | 239 kts | 208° |
| 2026-05-04 01:44 | 33.07856 | -79.90315 | 10285 ft | 228 kts | 249° |
| 2026-05-04 01:44 | 33.07700 | -79.92136 | 10279 ft | 221 kts | 289° |
| 2026-05-04 01:44 | 33.08593 | -79.93541 | 10284 ft | 220 kts | 329° |
| 2026-05-04 01:44 | 33.10103 | -79.93881 | 10291 ft | 225 kts | 3° |
| 2026-05-04 01:45 | 33.11676 | -79.93768 | 10261 ft | 225 kts | 356° |
| 2026-05-04 01:45 | 33.13233 | -79.93810 | 10254 ft | 227 kts | 355° |
| 2026-05-04 01:45 | 33.16710 | -79.93961 | 11641 ft | 270 kts | 354° |
| 2026-05-04 01:46 | 33.18642 | -79.94054 | 12415 ft | 289 kts | 354° |
| 2026-05-04 01:46 | 33.20693 | -79.94153 | 13182 ft | 300 kts | 354° |
| 2026-05-04 01:46 | 33.22785 | -79.94232 | 13923 ft | 307 kts | 358° |
| 2026-05-04 01:46 | 33.24805 | -79.93604 | 14613 ft | 285 kts | 16° |
| 2026-05-04 01:47 | 33.26671 | -79.92963 | 15209 ft | 279 kts | 9° |
| 2026-05-04 01:47 | 33.28547 | -79.92425 | 15848 ft | 283 kts | 8° |
| 2026-05-04 01:47 | 33.30496 | -79.91881 | 16485 ft | 288 kts | 8° |
| 2026-05-04 01:47 | 33.32447 | -79.91338 | 17105 ft | 291 kts | 7° |
| 2026-05-04 01:48 | 33.34434 | -79.90785 | 17723 ft | 294 kts | 7° |
| 2026-05-04 01:48 | 33.36414 | -79.90234 | 18338 ft | 299 kts | 7° |
| 2026-05-04 01:48 | 33.38462 | -79.89668 | 18965 ft | 301 kts | 7° |
| 2026-05-04 01:48 | 33.40507 | -79.89101 | 19755 ft | 303 kts | 7° |
| 2026-05-04 01:49 | 33.42562 | -79.88533 | 20541 ft | 305 kts | 6° |
| 2026-05-04 01:49 | 33.44627 | -79.87961 | 21294 ft | 307 kts | 6° |
| 2026-05-04 01:49 | 33.46701 | -79.87386 | 22042 ft | 308 kts | 6° |
| 2026-05-04 01:49 | 33.48763 | -79.86815 | 22773 ft | 307 kts | 6° |
| 2026-05-04 01:50 | 33.50873 | -79.86230 | 23406 ft | 310 kts | 6° |
| 2026-05-04 01:50 | 33.52964 | -79.85651 | 24042 ft | 311 kts | 6° |
| 2026-05-04 01:50 | 33.55067 | -79.85066 | 24673 ft | 312 kts | 6° |
| 2026-05-04 01:50 | 33.57200 | -79.84476 | 25003 ft | 324 kts | 5° |
| 2026-05-04 01:51 | 33.59476 | -79.83851 | 24999 ft | 339 kts | 6° |
| 2026-05-04 01:51 | 33.61779 | -79.83208 | 24988 ft | 340 kts | 6° |
| 2026-05-04 01:51 | 33.64094 | -79.82560 | 24997 ft | 339 kts | 6° |
| 2026-05-04 01:51 | 33.66380 | -79.81923 | 25137 ft | 342 kts | 6° |
| 2026-05-04 01:52 | 33.68705 | -79.81274 | 25119 ft | 341 kts | 6° |
| 2026-05-04 01:52 | 33.71007 | -79.80632 | 25128 ft | 340 kts | 6° |
| 2026-05-04 01:52 | 33.73349 | -79.79983 | 25124 ft | 340 kts | 6° |
| 2026-05-04 01:52 | 33.75637 | -79.79345 | 25131 ft | 348 kts | 6° |
| 2026-05-04 01:53 | 33.78101 | -79.78665 | 25155 ft | 371 kts | 7° |
| 2026-05-04 01:53 | 33.80652 | -79.77951 | 25142 ft | 382 kts | 7° |
| 2026-05-04 01:53 | 33.83259 | -79.77219 | 25116 ft | 383 kts | 7° |
| 2026-05-04 01:53 | 33.85839 | -79.76492 | 25125 ft | 381 kts | 7° |
| 2026-05-04 01:54 | 33.88443 | -79.75749 | 25136 ft | 394 kts | 8° |
| 2026-05-04 01:54 | 33.91173 | -79.74971 | 25141 ft | 415 kts | 8° |
| 2026-05-04 01:54 | 33.94063 | -79.74140 | 25126 ft | 422 kts | 8° |
| 2026-05-04 01:54 | 33.96924 | -79.73317 | 25122 ft | 424 kts | 8° |
| 2026-05-04 01:55 | 33.99781 | -79.72492 | 25122 ft | 421 kts | 8° |
| 2026-05-04 01:55 | 34.02610 | -79.71680 | 25116 ft | 422 kts | 8° |
| 2026-05-04 01:55 | 34.05481 | -79.70855 | 25115 ft | 422 kts | 8° |
| 2026-05-04 01:55 | 34.08363 | -79.70023 | 25117 ft | 423 kts | 8° |
| 2026-05-04 01:56 | 34.11201 | -79.69207 | 25116 ft | 421 kts | 8° |
| 2026-05-04 01:56 | 34.14054 | -79.68385 | 25111 ft | 421 kts | 8° |
| 2026-05-04 01:56 | 34.16950 | -79.67550 | 25116 ft | 421 kts | 8° |
| 2026-05-04 01:56 | 34.19764 | -79.66739 | 25114 ft | 421 kts | 8° |
| 2026-05-04 01:57 | 34.22625 | -79.65908 | 25112 ft | 421 kts | 9° |
| 2026-05-04 01:57 | 34.25398 | -79.64642 | 25118 ft | 427 kts | 19° |
| 2026-05-04 01:57 | 34.28093 | -79.63213 | 25045 ft | 419 kts | 18° |
| 2026-05-04 01:57 | 34.30749 | -79.61809 | 24625 ft | 408 kts | 18° |
| 2026-05-04 01:58 | 34.33322 | -79.60449 | 24234 ft | 397 kts | 18° |
| 2026-05-04 01:58 | 34.35812 | -79.59139 | 23846 ft | 386 kts | 18° |
| 2026-05-04 01:58 | 34.38243 | -79.57860 | 23454 ft | 377 kts | 18° |
| 2026-05-04 01:58 | 34.40620 | -79.56608 | 23070 ft | 369 kts | 18° |
| 2026-05-04 01:59 | 34.42971 | -79.55369 | 22693 ft | 366 kts | 18° |
| 2026-05-04 01:59 | 34.45288 | -79.54147 | 22324 ft | 365 kts | 18° |
| 2026-05-04 01:59 | 34.47610 | -79.52922 | 21956 ft | 364 kts | 18° |
| 2026-05-04 01:59 | 34.49909 | -79.51708 | 21588 ft | 361 kts | 18° |
| 2026-05-04 02:00 | 34.52234 | -79.50479 | 21214 ft | 359 kts | 18° |
| 2026-05-04 02:00 | 34.54498 | -79.49281 | 20849 ft | 357 kts | 18° |
| 2026-05-04 02:00 | 34.56758 | -79.48084 | 20480 ft | 354 kts | 18° |
| 2026-05-04 02:00 | 34.59019 | -79.46890 | 20056 ft | 352 kts | 18° |
| 2026-05-04 02:01 | 34.61262 | -79.45700 | 19361 ft | 355 kts | 18° |
| 2026-05-04 02:01 | 34.63529 | -79.44500 | 18614 ft | 350 kts | 18° |
| 2026-05-04 02:01 | 34.65631 | -79.43372 | 17520 ft | 310 kts | 17° |
| 2026-05-04 02:01 | 34.67474 | -79.42388 | 16805 ft | 277 kts | 17° |
| 2026-05-04 02:02 | 34.69170 | -79.41487 | 16085 ft | 257 kts | 16° |
| 2026-05-04 02:02 | 34.70786 | -79.40667 | 15080 ft | 251 kts | 13° |
| 2026-05-04 02:02 | 34.72380 | -79.39938 | 14078 ft | 246 kts | 14° |
| 2026-05-04 02:02 | 34.73940 | -79.39205 | 13059 ft | 242 kts | 14° |
| 2026-05-04 02:03 | 34.75484 | -79.38483 | 11834 ft | 242 kts | 15° |
| 2026-05-04 02:03 | 34.77024 | -79.37760 | 10435 ft | 246 kts | 16° |
| 2026-05-04 02:03 | 34.78593 | -79.37021 | 8367 ft | 260 kts | 17° |
| 2026-05-04 02:03 | 34.80164 | -79.36242 | 6324 ft | 252 kts | 19° |
| 2026-05-04 02:04 | 34.81677 | -79.35491 | 4652 ft | 233 kts | 20° |
| 2026-05-04 02:04 | 34.83115 | -79.34798 | 3830 ft | 210 kts | 20° |
| 2026-05-04 02:04 | 34.84421 | -79.34212 | 2869 ft | 208 kts | 20° |
| 2026-05-04 02:04 | 34.85759 | -79.33612 | 1757 ft | 203 kts | 21° |
| 2026-05-04 02:05 | 34.86946 | -79.33065 | 1581 ft | 165 kts | 21° |
| 2026-05-04 02:05 | 34.88008 | -79.32571 | 1747 ft | 169 kts | 21° |
| 2026-05-04 02:05 | 34.89106 | -79.32056 | 1596 ft | 162 kts | 21° |
| 2026-05-04 02:05 | 34.90130 | -79.31575 | 1607 ft | 156 kts | 21° |
| 2026-05-04 02:06 | 34.91157 | -79.31091 | 1615 ft | 158 kts | 21° |
| 2026-05-04 02:06 | 34.92187 | -79.30605 | 1615 ft | 159 kts | 21° |
| 2026-05-04 02:06 | 34.93220 | -79.30118 | 1613 ft | 159 kts | 21° |
| 2026-05-04 02:06 | 34.94252 | -79.29631 | 1615 ft | 159 kts | 21° |
| 2026-05-04 02:07 | 34.95289 | -79.29141 | 1614 ft | 159 kts | 21° |
| 2026-05-04 02:07 | 34.96304 | -79.28661 | 1615 ft | 158 kts | 21° |
| 2026-05-04 02:07 | 34.97345 | -79.28170 | 1616 ft | 159 kts | 21° |
| 2026-05-04 02:07 | 34.98392 | -79.27676 | 1615 ft | 158 kts | 21° |
| 2026-05-04 02:08 | 34.99413 | -79.27193 | 1615 ft | 159 kts | 21° |
| 2026-05-04 02:08 | 35.00449 | -79.26704 | 1614 ft | 159 kts | 21° |
| 2026-05-04 02:08 | 35.01480 | -79.26215 | 1613 ft | 158 kts | 21° |
| 2026-05-04 02:08 | 35.02508 | -79.25727 | 1615 ft | 158 kts | 21° |
| 2026-05-04 02:09 | 35.03537 | -79.25240 | 1616 ft | 158 kts | 21° |
| 2026-05-04 02:09 | 35.04573 | -79.24748 | 1616 ft | 158 kts | 21° |
| 2026-05-04 02:09 | 35.05600 | -79.24261 | 1616 ft | 158 kts | 21° |
| 2026-05-04 02:09 | 35.06621 | -79.23776 | 1616 ft | 159 kts | 21° |
| 2026-05-04 02:10 | 35.07657 | -79.23284 | 1616 ft | 159 kts | 21° |
| 2026-05-04 02:10 | 35.08691 | -79.22794 | 1614 ft | 159 kts | 21° |
| 2026-05-04 02:10 | 35.09729 | -79.22302 | 1615 ft | 158 kts | 21° |
| 2026-05-04 02:10 | 35.10768 | -79.21810 | 1615 ft | 159 kts | 21° |
| 2026-05-04 02:11 | 35.11799 | -79.21321 | 1616 ft | 159 kts | 21° |
| 2026-05-04 02:11 | 35.12843 | -79.20825 | 1617 ft | 159 kts | 21° |
| 2026-05-04 02:11 | 35.13874 | -79.20335 | 1614 ft | 158 kts | 21° |
| 2026-05-04 02:11 | 35.14902 | -79.19847 | 1624 ft | 159 kts | 21° |
| 2026-05-04 02:12 | 35.15927 | -79.19360 | 1612 ft | 158 kts | 21° |
| 2026-05-04 02:12 | 35.16970 | -79.18864 | 1622 ft | 167 kts | 21° |
| 2026-05-04 02:12 | 35.18189 | -79.18283 | 2296 ft | 207 kts | 21° |
| 2026-05-04 02:12 | 35.19629 | -79.17597 | 3011 ft | 239 kts | 21° |
| 2026-05-04 02:13 | 35.21218 | -79.16840 | 3656 ft | 245 kts | 20° |
| 2026-05-04 02:13 | 35.22845 | -79.16061 | 4306 ft | 254 kts | 20° |
| 2026-05-04 02:13 | 35.24448 | -79.15296 | 4926 ft | 248 kts | 19° |
| 2026-05-04 02:13 | 35.26078 | -79.14520 | 5567 ft | 254 kts | 19° |
| 2026-05-04 02:14 | 35.27713 | -79.13741 | 6203 ft | 250 kts | 18° |
| 2026-05-04 02:14 | 35.29333 | -79.12968 | 6839 ft | 256 kts | 18° |
| 2026-05-04 02:14 | 35.31025 | -79.12163 | 7156 ft | 263 kts | 18° |
| 2026-05-04 02:14 | 35.32649 | -79.11385 | 7694 ft | 250 kts | 17° |
| 2026-05-04 02:15 | 35.34262 | -79.10617 | 8331 ft | 256 kts | 17° |
| 2026-05-04 02:15 | 35.35904 | -79.09832 | 8967 ft | 255 kts | 17° |
| 2026-05-04 02:15 | 35.37561 | -79.09042 | 9602 ft | 254 kts | 16° |
| 2026-05-04 02:15 | 35.39233 | -79.08242 | 10234 ft | 254 kts | 16° |
| 2026-05-04 02:16 | 35.40905 | -79.07445 | 10849 ft | 263 kts | 16° |
| 2026-05-04 02:16 | 35.42638 | -79.06696 | 11477 ft | 264 kts | 5° |
| 2026-05-04 02:16 | 35.44349 | -79.06987 | 12083 ft | 250 kts | 329° |
| 2026-05-04 02:16 | 35.45549 | -79.08509 | 12744 ft | 253 kts | 294° |
| 2026-05-04 02:17 | 35.45732 | -79.10606 | 13396 ft | 254 kts | 262° |
| 2026-05-04 02:17 | 35.45161 | -79.12673 | 14027 ft | 263 kts | 251° |
| 2026-05-04 02:17 | 35.44386 | -79.14682 | 14636 ft | 264 kts | 247° |
| 2026-05-04 02:17 | 35.43488 | -79.16667 | 15259 ft | 265 kts | 244° |
| 2026-05-04 02:18 | 35.42548 | -79.18598 | 15862 ft | 268 kts | 243° |
| 2026-05-04 02:18 | 35.41573 | -79.20532 | 16477 ft | 269 kts | 243° |
| 2026-05-04 02:18 | 35.40573 | -79.22485 | 17099 ft | 271 kts | 243° |
| 2026-05-04 02:18 | 35.39557 | -79.24445 | 17727 ft | 272 kts | 242° |
| 2026-05-04 02:19 | 35.38544 | -79.26391 | 18333 ft | 275 kts | 242° |
| 2026-05-04 02:19 | 35.37523 | -79.28349 | 18941 ft | 275 kts | 242° |
| 2026-05-04 02:19 | 35.36489 | -79.30328 | 19552 ft | 277 kts | 242° |
| 2026-05-04 02:19 | 35.35429 | -79.32360 | 20183 ft | 289 kts | 242° |
| 2026-05-04 02:20 | 35.34327 | -79.34470 | 20823 ft | 302 kts | 242° |
| 2026-05-04 02:20 | 35.33184 | -79.36652 | 21096 ft | 309 kts | 242° |
| 2026-05-04 02:20 | 35.32010 | -79.38889 | 21102 ft | 308 kts | 242° |
| 2026-05-04 02:20 | 35.30854 | -79.41087 | 21100 ft | 307 kts | 242° |
| 2026-05-04 02:21 | 35.29703 | -79.43282 | 21100 ft | 307 kts | 242° |
| 2026-05-04 02:21 | 35.28547 | -79.45482 | 21100 ft | 307 kts | 242° |
| 2026-05-04 02:21 | 35.27389 | -79.47684 | 21101 ft | 307 kts | 242° |
| 2026-05-04 02:21 | 35.26242 | -79.49867 | 21101 ft | 306 kts | 242° |
| 2026-05-04 02:22 | 35.25085 | -79.52068 | 21095 ft | 307 kts | 241° |
| 2026-05-04 02:22 | 35.23928 | -79.54263 | 21099 ft | 308 kts | 242° |
| 2026-05-04 02:22 | 35.22768 | -79.56467 | 21099 ft | 307 kts | 242° |
| 2026-05-04 02:22 | 35.21615 | -79.58664 | 21093 ft | 306 kts | 242° |
| 2026-05-04 02:23 | 35.20739 | -79.61007 | 21095 ft | 304 kts | 248° |
| 2026-05-04 02:23 | 35.19629 | -79.63250 | 21113 ft | 307 kts | 243° |
| 2026-05-04 02:23 | 35.18571 | -79.65477 | 21095 ft | 307 kts | 244° |
| 2026-05-04 02:23 | 35.17506 | -79.67775 | 21099 ft | 307 kts | 244° |
| 2026-05-04 02:24 | 35.16472 | -79.70043 | 21102 ft | 306 kts | 244° |
| 2026-05-04 02:24 | 35.15437 | -79.72314 | 21098 ft | 306 kts | 244° |
| 2026-05-04 02:24 | 35.14405 | -79.74595 | 21104 ft | 306 kts | 244° |
| 2026-05-04 02:24 | 35.13367 | -79.76879 | 21092 ft | 307 kts | 244° |
| 2026-05-04 02:25 | 35.12342 | -79.79144 | 21107 ft | 308 kts | 244° |
| 2026-05-04 02:25 | 35.11305 | -79.81426 | 21097 ft | 307 kts | 244° |
| 2026-05-04 02:25 | 35.10260 | -79.83730 | 21098 ft | 307 kts | 244° |
| 2026-05-04 02:25 | 35.09222 | -79.86015 | 21103 ft | 308 kts | 244° |
| 2026-05-04 02:26 | 35.08193 | -79.88282 | 21094 ft | 308 kts | 244° |
| 2026-05-04 02:26 | 35.07148 | -79.90575 | 21099 ft | 307 kts | 244° |
| 2026-05-04 02:26 | 35.06103 | -79.92873 | 21099 ft | 309 kts | 244° |
| 2026-05-04 02:26 | 35.05060 | -79.95160 | 21102 ft | 309 kts | 244° |
| 2026-05-04 02:27 | 35.04028 | -79.97424 | 21100 ft | 308 kts | 244° |
| 2026-05-04 02:27 | 35.02984 | -79.99716 | 21099 ft | 308 kts | 244° |
| 2026-05-04 02:27 | 35.01948 | -80.01985 | 21097 ft | 308 kts | 244° |
| 2026-05-04 02:27 | 35.00896 | -80.04286 | 21101 ft | 308 kts | 244° |
| 2026-05-04 02:28 | 34.99860 | -80.06556 | 21101 ft | 307 kts | 244° |
| 2026-05-04 02:28 | 34.98827 | -80.08813 | 21098 ft | 307 kts | 244° |
| 2026-05-04 02:28 | 34.97775 | -80.11111 | 21100 ft | 308 kts | 244° |
| 2026-05-04 02:28 | 34.96726 | -80.13403 | 21096 ft | 308 kts | 244° |
| 2026-05-04 02:29 | 34.95691 | -80.15663 | 21094 ft | 309 kts | 244° |
| 2026-05-04 02:29 | 34.94640 | -80.17956 | 21097 ft | 310 kts | 244° |
| 2026-05-04 02:29 | 34.93599 | -80.20225 | 21098 ft | 309 kts | 244° |
| 2026-05-04 02:29 | 34.92553 | -80.22504 | 21097 ft | 308 kts | 244° |
| 2026-05-04 02:30 | 34.91497 | -80.24799 | 21097 ft | 308 kts | 244° |
| 2026-05-04 02:30 | 34.90451 | -80.27078 | 21090 ft | 310 kts | 244° |
| 2026-05-04 02:30 | 34.89398 | -80.29363 | 21097 ft | 309 kts | 244° |
| 2026-05-04 02:30 | 34.88343 | -80.31654 | 21089 ft | 309 kts | 244° |
| 2026-05-04 02:31 | 34.87286 | -80.33954 | 21092 ft | 311 kts | 244° |
| 2026-05-04 02:31 | 34.86239 | -80.36226 | 21093 ft | 309 kts | 244° |
| 2026-05-04 02:31 | 34.85172 | -80.38533 | 21091 ft | 310 kts | 244° |
| 2026-05-04 02:31 | 34.84121 | -80.40815 | 21095 ft | 310 kts | 244° |
| 2026-05-04 02:32 | 34.83062 | -80.43105 | 21091 ft | 311 kts | 244° |
| 2026-05-04 02:32 | 34.82010 | -80.45389 | 21087 ft | 312 kts | 244° |
| 2026-05-04 02:32 | 34.80949 | -80.47672 | 21094 ft | 310 kts | 244° |
| 2026-05-04 02:32 | 34.79875 | -80.49998 | 21093 ft | 312 kts | 244° |
| 2026-05-04 02:33 | 34.78814 | -80.52286 | 21090 ft | 310 kts | 244° |
| 2026-05-04 02:33 | 34.77746 | -80.54597 | 21093 ft | 312 kts | 244° |
| 2026-05-04 02:33 | 34.76683 | -80.56883 | 21097 ft | 311 kts | 244° |